sensor_id;sensor_type;location;lat;lon;timestamp;P1;durP1;ratioP1;P2;durP2;ratioP2
7833;SDS011;3962;42.696;23.354;2023-02-03T00:01:35;5.20;;;4.57;;
7833;SDS011;3962;42.696;23.354;2023-02-03T00:04:02;8.07;;;4.83;;
7833;SDS011;3962;42.696;23.354;2023-02-03T00:06:29;8.13;;;4.70;;
7833;SDS011;3962;42.696;23.354;2023-02-03T00:08:57;6.00;;;4.50;;
7833;SDS011;3962;42.696;23.354;2023-02-03T00:11:26;7.43;;;4.67;;
7833;SDS011;3962;42.696;23.354;2023-02-03T00:13:54;7.00;;;4.80;;
7833;SDS011;3962;42.696;23.354;2023-02-03T00:16:22;7.13;;;5.07;;
7833;SDS011;3962;42.696;23.354;2023-02-03T00:18:50;7.97;;;5.00;;
7833;SDS011;3962;42.696;23.354;2023-02-03T00:21:17;8.03;;;5.40;;
7833;SDS011;3962;42.696;23.354;2023-02-03T00:23:44;11.83;;;5.23;;
7833;SDS011;3962;42.696;23.354;2023-02-03T00:26:11;6.83;;;5.60;;
7833;SDS011;3962;42.696;23.354;2023-02-03T00:28:39;8.90;;;5.47;;
7833;SDS011;3962;42.696;23.354;2023-02-03T00:31:13;6.30;;;5.13;;
7833;SDS011;3962;42.696;23.354;2023-02-03T00:33:41;6.70;;;4.90;;
7833;SDS011;3962;42.696;23.354;2023-02-03T00:36:09;6.43;;;4.90;;
7833;SDS011;3962;42.696;23.354;2023-02-03T00:38:37;7.63;;;5.60;;
7833;SDS011;3962;42.696;23.354;2023-02-03T00:41:04;7.00;;;5.30;;
7833;SDS011;3962;42.696;23.354;2023-02-03T00:43:31;6.03;;;5.27;;
7833;SDS011;3962;42.696;23.354;2023-02-03T00:45:58;8.43;;;5.70;;
7833;SDS011;3962;42.696;23.354;2023-02-03T00:48:25;7.27;;;5.43;;
7833;SDS011;3962;42.696;23.354;2023-02-03T00:50:52;23.03;;;9.00;;
7833;SDS011;3962;42.696;23.354;2023-02-03T00:53:20;28.50;;;11.60;;
7833;SDS011;3962;42.696;23.354;2023-02-03T00:55:47;26.40;;;10.63;;
7833;SDS011;3962;42.696;23.354;2023-02-03T00:58:13;23.37;;;11.10;;
7833;SDS011;3962;42.696;23.354;2023-02-03T01:00:40;26.30;;;11.37;;
7833;SDS011;3962;42.696;23.354;2023-02-03T01:03:07;18.73;;;8.57;;
7833;SDS011;3962;42.696;23.354;2023-02-03T01:05:34;13.40;;;8.00;;
7833;SDS011;3962;42.696;23.354;2023-02-03T01:08:01;15.70;;;9.80;;
7833;SDS011;3962;42.696;23.354;2023-02-03T01:10:30;8.07;;;5.90;;
7833;SDS011;3962;42.696;23.354;2023-02-03T01:12:57;8.53;;;6.13;;
7833;SDS011;3962;42.696;23.354;2023-02-03T01:15:23;11.10;;;7.63;;
7833;SDS011;3962;42.696;23.354;2023-02-03T01:17:50;8.53;;;6.50;;
7833;SDS011;3962;42.696;23.354;2023-02-03T01:20:17;10.93;;;6.50;;
7833;SDS011;3962;42.696;23.354;2023-02-03T01:22:45;8.30;;;5.00;;
7833;SDS011;3962;42.696;23.354;2023-02-03T01:25:12;8.77;;;5.73;;
7833;SDS011;3962;42.696;23.354;2023-02-03T01:27:41;6.93;;;5.33;;
7833;SDS011;3962;42.696;23.354;2023-02-03T01:30:09;5.80;;;4.87;;
7833;SDS011;3962;42.696;23.354;2023-02-03T01:32:36;5.37;;;4.40;;
7833;SDS011;3962;42.696;23.354;2023-02-03T01:35:03;5.73;;;4.37;;
7833;SDS011;3962;42.696;23.354;2023-02-03T01:37:30;5.10;;;4.30;;
7833;SDS011;3962;42.696;23.354;2023-02-03T01:39:57;4.93;;;4.43;;
7833;SDS011;3962;42.696;23.354;2023-02-03T01:42:24;5.07;;;4.03;;
7833;SDS011;3962;42.696;23.354;2023-02-03T01:44:52;6.50;;;4.13;;
7833;SDS011;3962;42.696;23.354;2023-02-03T01:47:22;5.33;;;4.17;;
7833;SDS011;3962;42.696;23.354;2023-02-03T01:49:54;5.10;;;4.33;;
7833;SDS011;3962;42.696;23.354;2023-02-03T01:52:25;4.57;;;4.13;;
7833;SDS011;3962;42.696;23.354;2023-02-03T01:54:53;9.27;;;6.07;;
7833;SDS011;3962;42.696;23.354;2023-02-03T01:57:23;7.67;;;5.23;;
7833;SDS011;3962;42.696;23.354;2023-02-03T01:59:56;6.50;;;4.40;;
7833;SDS011;3962;42.696;23.354;2023-02-03T02:02:25;4.00;;;3.67;;
7833;SDS011;3962;42.696;23.354;2023-02-03T02:04:53;4.30;;;3.70;;
7833;SDS011;3962;42.696;23.354;2023-02-03T02:07:25;6.20;;;5.10;;
7833;SDS011;3962;42.696;23.354;2023-02-03T02:09:52;7.23;;;5.27;;
7833;SDS011;3962;42.696;23.354;2023-02-03T02:12:20;8.03;;;5.27;;
7833;SDS011;3962;42.696;23.354;2023-02-03T02:14:47;11.10;;;6.00;;
7833;SDS011;3962;42.696;23.354;2023-02-03T02:17:19;5.73;;;4.67;;
7833;SDS011;3962;42.696;23.354;2023-02-03T02:23:01;4.90;;;4.40;;
7833;SDS011;3962;42.696;23.354;2023-02-03T02:25:46;3.87;;;3.47;;
7833;SDS011;3962;42.696;23.354;2023-02-03T02:28:34;5.33;;;3.90;;
7833;SDS011;3962;42.696;23.354;2023-02-03T02:34:18;5.17;;;3.67;;
7833;SDS011;3962;42.696;23.354;2023-02-03T02:36:52;6.30;;;5.03;;
7833;SDS011;3962;42.696;23.354;2023-02-03T02:39:31;6.33;;;4.43;;
7833;SDS011;3962;42.696;23.354;2023-02-03T02:42:05;6.63;;;5.50;;
7833;SDS011;3962;42.696;23.354;2023-02-03T02:44:40;7.33;;;5.80;;
7833;SDS011;3962;42.696;23.354;2023-02-03T02:47:14;5.97;;;4.70;;
7833;SDS011;3962;42.696;23.354;2023-02-03T02:49:44;5.63;;;4.63;;
7833;SDS011;3962;42.696;23.354;2023-02-03T02:52:18;8.93;;;5.70;;
7833;SDS011;3962;42.696;23.354;2023-02-03T02:54:50;5.77;;;5.17;;
7833;SDS011;3962;42.696;23.354;2023-02-03T02:57:20;7.67;;;5.17;;
7833;SDS011;3962;42.696;23.354;2023-02-03T02:59:51;9.63;;;6.13;;
7833;SDS011;3962;42.696;23.354;2023-02-03T03:02:21;8.07;;;6.23;;
7833;SDS011;3962;42.696;23.354;2023-02-03T03:04:48;7.33;;;5.73;;
7833;SDS011;3962;42.696;23.354;2023-02-03T03:07:17;7.07;;;6.03;;
7833;SDS011;3962;42.696;23.354;2023-02-03T03:09:47;6.60;;;4.97;;
7833;SDS011;3962;42.696;23.354;2023-02-03T03:12:18;6.33;;;4.40;;
7833;SDS011;3962;42.696;23.354;2023-02-03T03:14:49;4.93;;;4.53;;
7833;SDS011;3962;42.696;23.354;2023-02-03T03:17:23;6.17;;;4.13;;
7833;SDS011;3962;42.696;23.354;2023-02-03T03:19:54;5.63;;;3.90;;
7833;SDS011;3962;42.696;23.354;2023-02-03T03:22:23;4.00;;;3.60;;
7833;SDS011;3962;42.696;23.354;2023-02-03T03:24:59;6.83;;;4.27;;
7833;SDS011;3962;42.696;23.354;2023-02-03T03:27:30;4.63;;;4.20;;
7833;SDS011;3962;42.696;23.354;2023-02-03T03:30:03;4.80;;;4.30;;
7833;SDS011;3962;42.696;23.354;2023-02-03T03:32:36;7.67;;;4.30;;
7833;SDS011;3962;42.696;23.354;2023-02-03T03:35:04;4.20;;;3.80;;
7833;SDS011;3962;42.696;23.354;2023-02-03T03:37:33;4.13;;;3.83;;
7833;SDS011;3962;42.696;23.354;2023-02-03T03:40:05;4.60;;;4.20;;
7833;SDS011;3962;42.696;23.354;2023-02-03T03:42:37;4.57;;;4.10;;
7833;SDS011;3962;42.696;23.354;2023-02-03T03:45:09;4.53;;;4.20;;
7833;SDS011;3962;42.696;23.354;2023-02-03T03:47:43;5.93;;;4.50;;
7833;SDS011;3962;42.696;23.354;2023-02-03T03:50:17;4.50;;;4.10;;
7833;SDS011;3962;42.696;23.354;2023-02-03T03:52:46;5.53;;;4.37;;
7833;SDS011;3962;42.696;23.354;2023-02-03T03:55:16;4.30;;;3.90;;
7833;SDS011;3962;42.696;23.354;2023-02-03T03:57:45;5.83;;;4.20;;
7833;SDS011;3962;42.696;23.354;2023-02-03T04:00:20;4.73;;;4.27;;
7833;SDS011;3962;42.696;23.354;2023-02-03T04:02:51;4.60;;;4.20;;
7833;SDS011;3962;42.696;23.354;2023-02-03T04:05:21;4.80;;;4.40;;
7833;SDS011;3962;42.696;23.354;2023-02-03T04:07:49;4.77;;;4.27;;
7833;SDS011;3962;42.696;23.354;2023-02-03T04:10:19;5.50;;;3.83;;
7833;SDS011;3962;42.696;23.354;2023-02-03T04:12:51;5.83;;;3.80;;
7833;SDS011;3962;42.696;23.354;2023-02-03T04:15:17;6.23;;;4.07;;
7833;SDS011;3962;42.696;23.354;2023-02-03T04:17:44;5.33;;;4.37;;
7833;SDS011;3962;42.696;23.354;2023-02-03T04:20:13;4.13;;;3.83;;
7833;SDS011;3962;42.696;23.354;2023-02-03T04:22:40;5.10;;;4.70;;
7833;SDS011;3962;42.696;23.354;2023-02-03T04:25:07;4.97;;;4.13;;
7833;SDS011;3962;42.696;23.354;2023-02-03T04:27:34;5.47;;;4.40;;
7833;SDS011;3962;42.696;23.354;2023-02-03T04:30:01;6.33;;;4.57;;
7833;SDS011;3962;42.696;23.354;2023-02-03T04:32:29;5.00;;;4.50;;
7833;SDS011;3962;42.696;23.354;2023-02-03T04:34:56;4.17;;;3.77;;
7833;SDS011;3962;42.696;23.354;2023-02-03T04:37:24;5.10;;;4.60;;
7833;SDS011;3962;42.696;23.354;2023-02-03T04:39:52;5.53;;;4.97;;
7833;SDS011;3962;42.696;23.354;2023-02-03T04:42:19;5.50;;;5.00;;
7833;SDS011;3962;42.696;23.354;2023-02-03T04:44:47;5.00;;;4.50;;
7833;SDS011;3962;42.696;23.354;2023-02-03T04:47:14;8.27;;;6.83;;
7833;SDS011;3962;42.696;23.354;2023-02-03T04:49:42;8.00;;;6.43;;
7833;SDS011;3962;42.696;23.354;2023-02-03T04:52:09;18.40;;;10.93;;
7833;SDS011;3962;42.696;23.354;2023-02-03T04:54:37;13.10;;;11.23;;
7833;SDS011;3962;42.696;23.354;2023-02-03T04:57:04;12.47;;;9.80;;
7833;SDS011;3962;42.696;23.354;2023-02-03T04:59:31;8.13;;;6.77;;
7833;SDS011;3962;42.696;23.354;2023-02-03T05:02:00;7.03;;;6.37;;
7833;SDS011;3962;42.696;23.354;2023-02-03T05:04:27;6.30;;;5.70;;
7833;SDS011;3962;42.696;23.354;2023-02-03T05:06:54;6.83;;;5.80;;
7833;SDS011;3962;42.696;23.354;2023-02-03T05:09:21;9.10;;;6.60;;
7833;SDS011;3962;42.696;23.354;2023-02-03T05:11:49;6.97;;;5.60;;
7833;SDS011;3962;42.696;23.354;2023-02-03T05:14:16;6.37;;;5.33;;
7833;SDS011;3962;42.696;23.354;2023-02-03T05:16:43;9.83;;;6.70;;
7833;SDS011;3962;42.696;23.354;2023-02-03T05:19:11;10.77;;;8.33;;
7833;SDS011;3962;42.696;23.354;2023-02-03T05:21:37;6.53;;;5.93;;
7833;SDS011;3962;42.696;23.354;2023-02-03T05:24:04;6.20;;;4.90;;
7833;SDS011;3962;42.696;23.354;2023-02-03T05:26:32;8.40;;;5.60;;
7833;SDS011;3962;42.696;23.354;2023-02-03T05:29:01;6.00;;;5.50;;
7833;SDS011;3962;42.696;23.354;2023-02-03T05:31:28;6.80;;;5.33;;
7833;SDS011;3962;42.696;23.354;2023-02-03T05:33:54;9.33;;;7.40;;
7833;SDS011;3962;42.696;23.354;2023-02-03T05:36:21;9.77;;;5.57;;
7833;SDS011;3962;42.696;23.354;2023-02-03T05:38:48;8.03;;;5.80;;
7833;SDS011;3962;42.696;23.354;2023-02-03T05:41:15;7.27;;;6.20;;
7833;SDS011;3962;42.696;23.354;2023-02-03T05:43:59;6.23;;;5.63;;
7833;SDS011;3962;42.696;23.354;2023-02-03T05:46:27;6.50;;;5.50;;
7833;SDS011;3962;42.696;23.354;2023-02-03T05:48:53;8.27;;;5.50;;
7833;SDS011;3962;42.696;23.354;2023-02-03T05:51:20;7.17;;;6.47;;
7833;SDS011;3962;42.696;23.354;2023-02-03T05:53:47;7.10;;;6.33;;
7833;SDS011;3962;42.696;23.354;2023-02-03T05:56:14;6.87;;;5.80;;
7833;SDS011;3962;42.696;23.354;2023-02-03T05:58:41;6.03;;;5.43;;
7833;SDS011;3962;42.696;23.354;2023-02-03T06:01:09;8.23;;;6.03;;
7833;SDS011;3962;42.696;23.354;2023-02-03T06:03:36;7.07;;;6.37;;
7833;SDS011;3962;42.696;23.354;2023-02-03T06:06:02;6.87;;;6.00;;
7833;SDS011;3962;42.696;23.354;2023-02-03T06:08:29;8.20;;;6.63;;
7833;SDS011;3962;42.696;23.354;2023-02-03T06:10:56;7.30;;;6.07;;
7833;SDS011;3962;42.696;23.354;2023-02-03T06:13:24;7.23;;;6.20;;
7833;SDS011;3962;42.696;23.354;2023-02-03T06:15:52;8.50;;;6.13;;
7833;SDS011;3962;42.696;23.354;2023-02-03T06:18:20;8.57;;;6.43;;
7833;SDS011;3962;42.696;23.354;2023-02-03T06:20:47;8.27;;;5.30;;
7833;SDS011;3962;42.696;23.354;2023-02-03T06:23:14;6.50;;;5.90;;
7833;SDS011;3962;42.696;23.354;2023-02-03T06:25:43;5.57;;;5.07;;
7833;SDS011;3962;42.696;23.354;2023-02-03T06:28:10;5.60;;;5.07;;
7833;SDS011;3962;42.696;23.354;2023-02-03T06:30:36;7.77;;;5.20;;
7833;SDS011;3962;42.696;23.354;2023-02-03T06:33:03;5.63;;;5.10;;
7833;SDS011;3962;42.696;23.354;2023-02-03T06:35:31;7.50;;;6.40;;
7833;SDS011;3962;42.696;23.354;2023-02-03T06:37:58;7.63;;;6.80;;
7833;SDS011;3962;42.696;23.354;2023-02-03T06:40:25;8.10;;;5.87;;
7833;SDS011;3962;42.696;23.354;2023-02-03T06:42:52;7.73;;;6.30;;
7833;SDS011;3962;42.696;23.354;2023-02-03T06:45:20;6.50;;;5.00;;
7833;SDS011;3962;42.696;23.354;2023-02-03T06:47:48;6.63;;;4.53;;
7833;SDS011;3962;42.696;23.354;2023-02-03T06:50:15;6.40;;;4.70;;
7833;SDS011;3962;42.696;23.354;2023-02-03T06:52:43;7.13;;;5.40;;
7833;SDS011;3962;42.696;23.354;2023-02-03T06:55:10;4.97;;;4.27;;
7833;SDS011;3962;42.696;23.354;2023-02-03T06:57:41;8.60;;;6.10;;
7833;SDS011;3962;42.696;23.354;2023-02-03T07:00:09;8.53;;;6.20;;
7833;SDS011;3962;42.696;23.354;2023-02-03T07:02:37;8.03;;;5.37;;
7833;SDS011;3962;42.696;23.354;2023-02-03T07:05:04;7.40;;;6.10;;
7833;SDS011;3962;42.696;23.354;2023-02-03T07:07:31;7.50;;;5.60;;
7833;SDS011;3962;42.696;23.354;2023-02-03T07:10:00;8.40;;;5.43;;
7833;SDS011;3962;42.696;23.354;2023-02-03T07:12:26;9.33;;;5.13;;
7833;SDS011;3962;42.696;23.354;2023-02-03T07:14:53;5.23;;;4.73;;
7833;SDS011;3962;42.696;23.354;2023-02-03T07:17:20;5.97;;;5.37;;
7833;SDS011;3962;42.696;23.354;2023-02-03T07:19:47;7.77;;;4.77;;
7833;SDS011;3962;42.696;23.354;2023-02-03T07:22:14;9.70;;;7.73;;
7833;SDS011;3962;42.696;23.354;2023-02-03T07:24:41;16.67;;;10.80;;
7833;SDS011;3962;42.696;23.354;2023-02-03T07:27:09;10.50;;;6.80;;
7833;SDS011;3962;42.696;23.354;2023-02-03T07:29:36;21.27;;;13.97;;
7833;SDS011;3962;42.696;23.354;2023-02-03T07:32:03;8.93;;;7.53;;
7833;SDS011;3962;42.696;23.354;2023-02-03T07:34:30;12.07;;;7.87;;
7833;SDS011;3962;42.696;23.354;2023-02-03T07:36:57;9.47;;;6.23;;
7833;SDS011;3962;42.696;23.354;2023-02-03T07:39:24;11.63;;;5.90;;
7833;SDS011;3962;42.696;23.354;2023-02-03T07:41:50;8.57;;;5.87;;
7833;SDS011;3962;42.696;23.354;2023-02-03T07:44:18;4.93;;;4.43;;
7833;SDS011;3962;42.696;23.354;2023-02-03T07:46:45;7.80;;;5.43;;
7833;SDS011;3962;42.696;23.354;2023-02-03T07:49:12;6.47;;;4.60;;
7833;SDS011;3962;42.696;23.354;2023-02-03T07:51:40;4.97;;;4.47;;
7833;SDS011;3962;42.696;23.354;2023-02-03T07:54:07;6.80;;;4.53;;
7833;SDS011;3962;42.696;23.354;2023-02-03T07:56:34;7.57;;;5.03;;
7833;SDS011;3962;42.696;23.354;2023-02-03T07:59:01;8.60;;;4.90;;
7833;SDS011;3962;42.696;23.354;2023-02-03T08:01:29;8.33;;;5.03;;
7833;SDS011;3962;42.696;23.354;2023-02-03T08:03:58;5.83;;;4.53;;
7833;SDS011;3962;42.696;23.354;2023-02-03T08:06:26;4.23;;;3.93;;
7833;SDS011;3962;42.696;23.354;2023-02-03T08:08:54;6.93;;;4.10;;
7833;SDS011;3962;42.696;23.354;2023-02-03T08:11:21;6.40;;;4.60;;
7833;SDS011;3962;42.696;23.354;2023-02-03T08:13:48;4.93;;;4.43;;
7833;SDS011;3962;42.696;23.354;2023-02-03T08:16:15;6.90;;;4.33;;
7833;SDS011;3962;42.696;23.354;2023-02-03T08:18:43;4.50;;;4.10;;
7833;SDS011;3962;42.696;23.354;2023-02-03T08:21:10;14.23;;;5.13;;
7833;SDS011;3962;42.696;23.354;2023-02-03T08:23:37;8.20;;;4.60;;
7833;SDS011;3962;42.696;23.354;2023-02-03T08:26:03;4.97;;;4.13;;
7833;SDS011;3962;42.696;23.354;2023-02-03T08:28:30;4.17;;;3.63;;
7833;SDS011;3962;42.696;23.354;2023-02-03T08:30:57;4.97;;;3.70;;
7833;SDS011;3962;42.696;23.354;2023-02-03T08:33:24;8.90;;;4.47;;
7833;SDS011;3962;42.696;23.354;2023-02-03T08:35:54;9.23;;;4.50;;
7833;SDS011;3962;42.696;23.354;2023-02-03T08:38:21;5.40;;;3.60;;
7833;SDS011;3962;42.696;23.354;2023-02-03T08:40:49;4.40;;;3.97;;
7833;SDS011;3962;42.696;23.354;2023-02-03T08:43:16;3.40;;;3.10;;
7833;SDS011;3962;42.696;23.354;2023-02-03T08:45:43;6.30;;;3.23;;
7833;SDS011;3962;42.696;23.354;2023-02-03T08:48:10;4.40;;;3.60;;
7833;SDS011;3962;42.696;23.354;2023-02-03T08:50:36;5.17;;;3.80;;
7833;SDS011;3962;42.696;23.354;2023-02-03T08:53:07;5.63;;;3.77;;
7833;SDS011;3962;42.696;23.354;2023-02-03T08:55:36;3.97;;;3.60;;
7833;SDS011;3962;42.696;23.354;2023-02-03T08:58:04;5.70;;;3.30;;
7833;SDS011;3962;42.696;23.354;2023-02-03T09:00:31;4.23;;;3.07;;
7833;SDS011;3962;42.696;23.354;2023-02-03T09:02:57;5.13;;;3.03;;
7833;SDS011;3962;42.696;23.354;2023-02-03T09:05:24;5.33;;;3.73;;
7833;SDS011;3962;42.696;23.354;2023-02-03T09:07:51;6.53;;;3.30;;
7833;SDS011;3962;42.696;23.354;2023-02-03T09:10:19;7.87;;;4.00;;
7833;SDS011;3962;42.696;23.354;2023-02-03T09:12:46;4.47;;;3.57;;
7833;SDS011;3962;42.696;23.354;2023-02-03T09:15:13;6.83;;;4.00;;
7833;SDS011;3962;42.696;23.354;2023-02-03T09:17:40;3.40;;;2.87;;
7833;SDS011;3962;42.696;23.354;2023-02-03T09:20:07;4.00;;;3.10;;
7833;SDS011;3962;42.696;23.354;2023-02-03T09:22:37;7.30;;;3.57;;
7833;SDS011;3962;42.696;23.354;2023-02-03T09:25:04;7.77;;;4.70;;
7833;SDS011;3962;42.696;23.354;2023-02-03T09:27:33;7.30;;;4.43;;
7833;SDS011;3962;42.696;23.354;2023-02-03T09:29:59;12.37;;;4.33;;
7833;SDS011;3962;42.696;23.354;2023-02-03T09:32:26;8.77;;;3.80;;
7833;SDS011;3962;42.696;23.354;2023-02-03T09:34:53;8.50;;;3.20;;
7833;SDS011;3962;42.696;23.354;2023-02-03T09:37:20;6.93;;;2.80;;
7833;SDS011;3962;42.696;23.354;2023-02-03T09:39:47;4.63;;;4.20;;
7833;SDS011;3962;42.696;23.354;2023-02-03T09:42:26;5.63;;;3.57;;
7833;SDS011;3962;42.696;23.354;2023-02-03T09:45:09;4.20;;;3.47;;
7833;SDS011;3962;42.696;23.354;2023-02-03T09:47:43;3.17;;;2.80;;
7833;SDS011;3962;42.696;23.354;2023-02-03T09:50:11;5.43;;;3.47;;
7833;SDS011;3962;42.696;23.354;2023-02-03T09:52:43;6.00;;;2.80;;
7833;SDS011;3962;42.696;23.354;2023-02-03T09:55:15;3.87;;;3.23;;
7833;SDS011;3962;42.696;23.354;2023-02-03T09:57:53;8.00;;;3.57;;
7833;SDS011;3962;42.696;23.354;2023-02-03T10:00:30;3.60;;;2.80;;
7833;SDS011;3962;42.696;23.354;2023-02-03T10:03:02;4.03;;;2.80;;
7833;SDS011;3962;42.696;23.354;2023-02-03T10:05:48;6.73;;;3.10;;
7833;SDS011;3962;42.696;23.354;2023-02-03T10:08:27;5.27;;;3.37;;
7833;SDS011;3962;42.696;23.354;2023-02-03T10:11:06;6.77;;;4.13;;
7833;SDS011;3962;42.696;23.354;2023-02-03T10:13:48;3.90;;;3.03;;
7833;SDS011;3962;42.696;23.354;2023-02-03T10:16:34;5.90;;;3.37;;
7833;SDS011;3962;42.696;23.354;2023-02-03T10:19:12;6.20;;;3.27;;
7833;SDS011;3962;42.696;23.354;2023-02-03T10:21:45;3.40;;;3.10;;
7833;SDS011;3962;42.696;23.354;2023-02-03T10:24:17;4.37;;;3.13;;
7833;SDS011;3962;42.696;23.354;2023-02-03T10:26:49;4.30;;;3.60;;
7833;SDS011;3962;42.696;23.354;2023-02-03T10:29:18;4.20;;;3.50;;
7833;SDS011;3962;42.696;23.354;2023-02-03T10:31:47;4.37;;;3.30;;
7833;SDS011;3962;42.696;23.354;2023-02-03T10:34:15;4.43;;;3.60;;
7833;SDS011;3962;42.696;23.354;2023-02-03T10:36:52;6.87;;;3.73;;
7833;SDS011;3962;42.696;23.354;2023-02-03T10:39:23;6.23;;;3.50;;
7833;SDS011;3962;42.696;23.354;2023-02-03T10:41:56;4.67;;;2.97;;
7833;SDS011;3962;42.696;23.354;2023-02-03T10:44:24;6.80;;;3.57;;
7833;SDS011;3962;42.696;23.354;2023-02-03T10:47:06;8.10;;;4.23;;
7833;SDS011;3962;42.696;23.354;2023-02-03T10:49:41;12.47;;;4.63;;
7833;SDS011;3962;42.696;23.354;2023-02-03T10:52:09;9.50;;;4.40;;
7833;SDS011;3962;42.696;23.354;2023-02-03T10:54:50;5.90;;;4.03;;
7833;SDS011;3962;42.696;23.354;2023-02-03T10:57:17;3.63;;;3.33;;
7833;SDS011;3962;42.696;23.354;2023-02-03T10:59:45;6.00;;;4.73;;
7833;SDS011;3962;42.696;23.354;2023-02-03T11:02:21;4.67;;;4.10;;
7833;SDS011;3962;42.696;23.354;2023-02-03T11:07:36;3.50;;;3.00;;
7833;SDS011;3962;42.696;23.354;2023-02-03T11:10:03;5.00;;;3.67;;
7833;SDS011;3962;42.696;23.354;2023-02-03T11:12:50;5.73;;;3.93;;
7833;SDS011;3962;42.696;23.354;2023-02-03T11:15:16;7.50;;;3.70;;
7833;SDS011;3962;42.696;23.354;2023-02-03T11:17:45;8.67;;;4.30;;
7833;SDS011;3962;42.696;23.354;2023-02-03T11:20:13;7.10;;;4.90;;
7833;SDS011;3962;42.696;23.354;2023-02-03T11:22:42;5.97;;;4.07;;
7833;SDS011;3962;42.696;23.354;2023-02-03T11:25:15;8.70;;;4.40;;
7833;SDS011;3962;42.696;23.354;2023-02-03T11:27:44;13.73;;;5.40;;
7833;SDS011;3962;42.696;23.354;2023-02-03T11:30:13;7.77;;;4.10;;
7833;SDS011;3962;42.696;23.354;2023-02-03T11:32:42;5.43;;;4.10;;
7833;SDS011;3962;42.696;23.354;2023-02-03T11:35:13;6.13;;;4.37;;
7833;SDS011;3962;42.696;23.354;2023-02-03T11:37:43;11.00;;;6.77;;
7833;SDS011;3962;42.696;23.354;2023-02-03T11:40:12;5.07;;;3.67;;
7833;SDS011;3962;42.696;23.354;2023-02-03T11:45:41;6.03;;;3.83;;
7833;SDS011;3962;42.696;23.354;2023-02-03T11:48:19;5.90;;;3.83;;
7833;SDS011;3962;42.696;23.354;2023-02-03T11:50:54;9.60;;;3.83;;
7833;SDS011;3962;42.696;23.354;2023-02-03T11:53:29;6.70;;;4.33;;
7833;SDS011;3962;42.696;23.354;2023-02-03T11:56:16;9.20;;;5.13;;
7833;SDS011;3962;42.696;23.354;2023-02-03T12:02:12;7.60;;;3.80;;
7833;SDS011;3962;42.696;23.354;2023-02-03T12:05:08;5.70;;;3.87;;
7833;SDS011;3962;42.696;23.354;2023-02-03T12:07:48;4.47;;;3.53;;
7833;SDS011;3962;42.696;23.354;2023-02-03T12:10:36;5.30;;;3.30;;
7833;SDS011;3962;42.696;23.354;2023-02-03T12:13:16;5.00;;;3.60;;
7833;SDS011;3962;42.696;23.354;2023-02-03T12:16:02;3.63;;;3.07;;
7833;SDS011;3962;42.696;23.354;2023-02-03T12:18:44;3.57;;;3.13;;
7833;SDS011;3962;42.696;23.354;2023-02-03T12:24:18;2.83;;;2.63;;
7833;SDS011;3962;42.696;23.354;2023-02-03T12:26:55;2.60;;;2.40;;
7833;SDS011;3962;42.696;23.354;2023-02-03T12:29:30;2.60;;;2.40;;
7833;SDS011;3962;42.696;23.354;2023-02-03T12:32:04;16.37;;;2.87;;
7833;SDS011;3962;42.696;23.354;2023-02-03T12:34:39;3.13;;;2.40;;
7833;SDS011;3962;42.696;23.354;2023-02-03T12:37:13;3.10;;;2.70;;
7833;SDS011;3962;42.696;23.354;2023-02-03T12:39:45;8.37;;;3.20;;
7833;SDS011;3962;42.696;23.354;2023-02-03T12:42:18;3.47;;;2.70;;
7833;SDS011;3962;42.696;23.354;2023-02-03T12:44:48;8.27;;;2.90;;
7833;SDS011;3962;42.696;23.354;2023-02-03T12:47:21;3.23;;;2.93;;
7833;SDS011;3962;42.696;23.354;2023-02-03T12:49:54;2.67;;;2.47;;
7833;SDS011;3962;42.696;23.354;2023-02-03T12:52:26;6.87;;;3.37;;
7833;SDS011;3962;42.696;23.354;2023-02-03T12:55:13;5.80;;;2.60;;
7833;SDS011;3962;42.696;23.354;2023-02-03T12:57:48;3.30;;;3.00;;
7833;SDS011;3962;42.696;23.354;2023-02-03T13:00:25;9.00;;;3.03;;
7833;SDS011;3962;42.696;23.354;2023-02-03T13:03:05;6.00;;;3.73;;
7833;SDS011;3962;42.696;23.354;2023-02-03T13:05:40;5.13;;;3.47;;
7833;SDS011;3962;42.696;23.354;2023-02-03T13:08:13;3.70;;;3.10;;
7833;SDS011;3962;42.696;23.354;2023-02-03T13:10:48;4.03;;;3.47;;
7833;SDS011;3962;42.696;23.354;2023-02-03T13:13:20;12.43;;;4.30;;
7833;SDS011;3962;42.696;23.354;2023-02-03T13:16:02;7.10;;;4.97;;
7833;SDS011;3962;42.696;23.354;2023-02-03T13:18:35;5.93;;;4.03;;
7833;SDS011;3962;42.696;23.354;2023-02-03T13:21:04;8.17;;;5.07;;
7833;SDS011;3962;42.696;23.354;2023-02-03T13:23:32;7.47;;;4.73;;
7833;SDS011;3962;42.696;23.354;2023-02-03T13:26:06;7.60;;;4.87;;
7833;SDS011;3962;42.696;23.354;2023-02-03T13:28:49;5.03;;;4.20;;
7833;SDS011;3962;42.696;23.354;2023-02-03T13:31:31;5.37;;;4.37;;
7833;SDS011;3962;42.696;23.354;2023-02-03T13:34:15;7.47;;;4.13;;
7833;SDS011;3962;42.696;23.354;2023-02-03T13:37:03;6.07;;;3.90;;
7833;SDS011;3962;42.696;23.354;2023-02-03T13:40:01;4.73;;;3.50;;
7833;SDS011;3962;42.696;23.354;2023-02-03T13:42:38;6.57;;;3.53;;
7833;SDS011;3962;42.696;23.354;2023-02-03T13:45:11;5.03;;;3.60;;
7833;SDS011;3962;42.696;23.354;2023-02-03T13:47:45;7.73;;;4.10;;
7833;SDS011;3962;42.696;23.354;2023-02-03T13:50:16;11.63;;;3.40;;
7833;SDS011;3962;42.696;23.354;2023-02-03T13:52:51;10.43;;;4.20;;
7833;SDS011;3962;42.696;23.354;2023-02-03T13:55:29;8.27;;;5.70;;
7833;SDS011;3962;42.696;23.354;2023-02-03T13:58:00;15.37;;;8.07;;
7833;SDS011;3962;42.696;23.354;2023-02-03T14:03:40;12.17;;;7.23;;
7833;SDS011;3962;42.696;23.354;2023-02-03T14:09:21;5.83;;;4.93;;
7833;SDS011;3962;42.696;23.354;2023-02-03T14:14:58;9.10;;;4.67;;
7833;SDS011;3962;42.696;23.354;2023-02-03T14:23:40;5.03;;;3.87;;
7833;SDS011;3962;42.696;23.354;2023-02-03T14:26:14;4.60;;;4.10;;
7833;SDS011;3962;42.696;23.354;2023-02-03T14:28:49;7.97;;;4.33;;
7833;SDS011;3962;42.696;23.354;2023-02-03T14:31:19;9.37;;;3.90;;
7833;SDS011;3962;42.696;23.354;2023-02-03T14:36:44;5.90;;;4.43;;
7833;SDS011;3962;42.696;23.354;2023-02-03T14:39:26;7.37;;;4.43;;
7833;SDS011;3962;42.696;23.354;2023-02-03T14:42:07;5.27;;;4.40;;
7833;SDS011;3962;42.696;23.354;2023-02-03T14:44:47;10.17;;;5.37;;
7833;SDS011;3962;42.696;23.354;2023-02-03T14:47:25;7.53;;;5.70;;
7833;SDS011;3962;42.696;23.354;2023-02-03T14:50:07;7.50;;;4.90;;
7833;SDS011;3962;42.696;23.354;2023-02-03T14:52:50;13.73;;;8.03;;
7833;SDS011;3962;42.696;23.354;2023-02-03T14:55:41;9.40;;;6.17;;
7833;SDS011;3962;42.696;23.354;2023-02-03T14:58:20;7.33;;;5.10;;
7833;SDS011;3962;42.696;23.354;2023-02-03T15:00:52;14.47;;;11.17;;
7833;SDS011;3962;42.696;23.354;2023-02-03T15:03:20;11.47;;;8.00;;
7833;SDS011;3962;42.696;23.354;2023-02-03T15:05:50;7.00;;;5.23;;
7833;SDS011;3962;42.696;23.354;2023-02-03T15:08:28;6.43;;;5.30;;
7833;SDS011;3962;42.696;23.354;2023-02-03T15:11:25;10.10;;;6.80;;
7833;SDS011;3962;42.696;23.354;2023-02-03T15:13:54;9.23;;;6.27;;
7833;SDS011;3962;42.696;23.354;2023-02-03T15:16:24;8.47;;;5.23;;
7833;SDS011;3962;42.696;23.354;2023-02-03T15:18:55;18.87;;;13.40;;
7833;SDS011;3962;42.696;23.354;2023-02-03T15:21:24;10.40;;;7.83;;
7833;SDS011;3962;42.696;23.354;2023-02-03T15:23:51;19.67;;;12.27;;
7833;SDS011;3962;42.696;23.354;2023-02-03T15:26:19;11.63;;;7.37;;
7833;SDS011;3962;42.696;23.354;2023-02-03T15:28:55;25.03;;;20.20;;
7833;SDS011;3962;42.696;23.354;2023-02-03T15:31:26;5.30;;;4.70;;
7833;SDS011;3962;42.696;23.354;2023-02-03T15:33:59;7.00;;;5.93;;
7833;SDS011;3962;42.696;23.354;2023-02-03T15:36:33;8.27;;;6.20;;
7833;SDS011;3962;42.696;23.354;2023-02-03T15:39:10;9.90;;;6.27;;
7833;SDS011;3962;42.696;23.354;2023-02-03T15:41:43;15.60;;;6.47;;
7833;SDS011;3962;42.696;23.354;2023-02-03T15:44:12;14.43;;;5.73;;
7833;SDS011;3962;42.696;23.354;2023-02-03T15:46:49;9.00;;;5.47;;
7833;SDS011;3962;42.696;23.354;2023-02-03T15:49:19;9.57;;;6.03;;
7833;SDS011;3962;42.696;23.354;2023-02-03T15:51:52;9.90;;;5.93;;
7833;SDS011;3962;42.696;23.354;2023-02-03T15:54:22;11.67;;;6.97;;
7833;SDS011;3962;42.696;23.354;2023-02-03T15:56:55;11.17;;;6.90;;
7833;SDS011;3962;42.696;23.354;2023-02-03T15:59:26;11.10;;;6.53;;